sensor_id;sensor_type;location;lat;lon;timestamp;pressure;altitude;pressure_sealevel;temperature;humidity
71165;BME280;58859;55.132;-1.586;2023-03-23T00:01:15;98162.19;;;13.47;100.00
71165;BME280;58859;55.132;-1.586;2023-03-23T00:03:45;98157.88;;;13.17;100.00
71165;BME280;58859;55.132;-1.586;2023-03-23T00:06:12;98169.13;;;13.41;100.00
71165;BME280;58859;55.132;-1.586;2023-03-23T00:08:46;98156.34;;;13.79;100.00
71165;BME280;58859;55.132;-1.586;2023-03-23T00:11:17;98164.44;;;13.78;100.00
71165;BME280;58859;55.132;-1.586;2023-03-23T00:13:44;98164.22;;;14.19;100.00
71165;BME280;58859;55.132;-1.586;2023-03-23T00:16:16;98173.19;;;14.35;100.00
71165;BME280;58859;55.132;-1.586;2023-03-23T00:18:45;98170.38;;;15.48;100.00
71165;BME280;58859;55.132;-1.586;2023-03-23T00:21:10;98181.97;;;16.12;100.00
71165;BME280;58859;55.132;-1.586;2023-03-23T00:23:35;98189.72;;;15.30;100.00
71165;BME280;58859;55.132;-1.586;2023-03-23T00:26:01;98197.19;;;14.32;100.00
71165;BME280;58859;55.132;-1.586;2023-03-23T00:28:27;98174.75;;;15.26;100.00
71165;BME280;58859;55.132;-1.586;2023-03-23T00:31:00;98175.03;;;15.46;100.00
71165;BME280;58859;55.132;-1.586;2023-03-23T00:33:31;98172.19;;;15.31;100.00
71165;BME280;58859;55.132;-1.586;2023-03-23T00:35:59;98195.97;;;14.11;100.00
71165;BME280;58859;55.132;-1.586;2023-03-23T00:38:24;98195.84;;;15.19;100.00
71165;BME280;58859;55.132;-1.586;2023-03-23T00:40:50;98202.34;;;14.04;100.00
71165;BME280;58859;55.132;-1.586;2023-03-23T00:43:17;98203.66;;;14.86;100.00
71165;BME280;58859;55.132;-1.586;2023-03-23T00:45:43;98209.56;;;15.43;100.00
71165;BME280;58859;55.132;-1.586;2023-03-23T00:48:13;98199.59;;;15.57;100.00
71165;BME280;58859;55.132;-1.586;2023-03-23T00:50:39;98197.28;;;15.43;100.00
71165;BME280;58859;55.132;-1.586;2023-03-23T00:53:04;98212.41;;;14.23;100.00
71165;BME280;58859;55.132;-1.586;2023-03-23T00:55:30;98192.38;;;15.64;100.00
71165;BME280;58859;55.132;-1.586;2023-03-23T00:57:56;98194.78;;;15.70;100.00
71165;BME280;58859;55.132;-1.586;2023-03-23T01:00:22;98197.25;;;13.86;100.00
71165;BME280;58859;55.132;-1.586;2023-03-23T01:02:48;98194.31;;;14.22;100.00
71165;BME280;58859;55.132;-1.586;2023-03-23T01:05:17;98193.44;;;14.56;100.00
71165;BME280;58859;55.132;-1.586;2023-03-23T01:07:42;98198.63;;;14.28;100.00
71165;BME280;58859;55.132;-1.586;2023-03-23T01:10:10;98208.59;;;14.54;100.00
71165;BME280;58859;55.132;-1.586;2023-03-23T01:12:40;98201.47;;;13.52;100.00
71165;BME280;58859;55.132;-1.586;2023-03-23T01:15:06;98206.53;;;14.56;100.00
71165;BME280;58859;55.132;-1.586;2023-03-23T01:17:32;98207.31;;;14.17;100.00
71165;BME280;58859;55.132;-1.586;2023-03-23T01:19:58;98213.44;;;14.62;100.00
71165;BME280;58859;55.132;-1.586;2023-03-23T01:22:23;98212.94;;;13.86;100.00
71165;BME280;58859;55.132;-1.586;2023-03-23T01:24:48;98227.25;;;13.25;100.00
71165;BME280;58859;55.132;-1.586;2023-03-23T01:27:14;98226.78;;;12.98;100.00
71165;BME280;58859;55.132;-1.586;2023-03-23T01:29:39;98225.06;;;12.33;100.00
71165;BME280;58859;55.132;-1.586;2023-03-23T01:32:05;98239.06;;;13.39;100.00
71165;BME280;58859;55.132;-1.586;2023-03-23T01:34:31;98238.50;;;13.72;100.00
71165;BME280;58859;55.132;-1.586;2023-03-23T01:36:56;98245.84;;;12.69;100.00
71165;BME280;58859;55.132;-1.586;2023-03-23T01:39:22;98244.38;;;13.03;100.00
71165;BME280;58859;55.132;-1.586;2023-03-23T01:41:47;98239.38;;;13.31;100.00
71165;BME280;58859;55.132;-1.586;2023-03-23T01:46:41;98232.97;;;12.86;100.00
71165;BME280;58859;55.132;-1.586;2023-03-23T01:49:22;98249.78;;;12.90;100.00
71165;BME280;58859;55.132;-1.586;2023-03-23T01:51:55;98257.38;;;12.80;100.00
71165;BME280;58859;55.132;-1.586;2023-03-23T01:54:22;98244.91;;;12.34;100.00
71165;BME280;58859;55.132;-1.586;2023-03-23T01:56:57;98251.06;;;12.39;100.00
71165;BME280;58859;55.132;-1.586;2023-03-23T01:59:24;98234.44;;;12.52;100.00
71165;BME280;58859;55.132;-1.586;2023-03-23T02:01:51;98246.63;;;12.03;100.00
71165;BME280;58859;55.132;-1.586;2023-03-23T02:04:19;98243.59;;;12.43;100.00
71165;BME280;58859;55.132;-1.586;2023-03-23T02:06:46;98247.84;;;12.01;100.00
71165;BME280;58859;55.132;-1.586;2023-03-23T02:09:13;98249.03;;;12.05;100.00
71165;BME280;58859;55.132;-1.586;2023-03-23T02:11:39;98246.22;;;12.25;100.00
71165;BME280;58859;55.132;-1.586;2023-03-23T02:14:05;98249.53;;;12.32;100.00
71165;BME280;58859;55.132;-1.586;2023-03-23T02:27:43;98272.25;;;13.73;100.00
71165;BME280;58859;55.132;-1.586;2023-03-23T02:35:44;98281.66;;;13.74;100.00
71165;BME280;58859;55.132;-1.586;2023-03-23T02:38:16;98283.13;;;13.47;100.00
71165;BME280;58859;55.132;-1.586;2023-03-23T02:40:46;98295.38;;;13.58;100.00
71165;BME280;58859;55.132;-1.586;2023-03-23T02:43:15;98301.06;;;13.67;100.00
71165;BME280;58859;55.132;-1.586;2023-03-23T02:45:44;98315.84;;;13.73;100.00
71165;BME280;58859;55.132;-1.586;2023-03-23T02:48:13;98312.44;;;13.72;100.00
71165;BME280;58859;55.132;-1.586;2023-03-23T02:50:42;98313.84;;;13.34;100.00
71165;BME280;58859;55.132;-1.586;2023-03-23T02:53:10;98313.78;;;14.45;100.00
71165;BME280;58859;55.132;-1.586;2023-03-23T02:55:39;98321.78;;;14.89;100.00
71165;BME280;58859;55.132;-1.586;2023-03-23T02:58:11;98314.31;;;13.31;100.00
71165;BME280;58859;55.132;-1.586;2023-03-23T03:00:38;98310.50;;;14.26;100.00
71165;BME280;58859;55.132;-1.586;2023-03-23T03:03:05;98315.97;;;14.01;100.00
71165;BME280;58859;55.132;-1.586;2023-03-23T03:06:03;98323.84;;;13.48;100.00
71165;BME280;58859;55.132;-1.586;2023-03-23T03:08:46;98315.63;;;13.98;100.00
71165;BME280;58859;55.132;-1.586;2023-03-23T03:11:17;98322.56;;;13.80;100.00
71165;BME280;58859;55.132;-1.586;2023-03-23T03:16:17;98325.25;;;13.62;100.00
71165;BME280;58859;55.132;-1.586;2023-03-23T03:18:56;98327.69;;;13.87;100.00
71165;BME280;58859;55.132;-1.586;2023-03-23T03:21:27;98322.19;;;13.65;100.00
71165;BME280;58859;55.132;-1.586;2023-03-23T03:23:56;98328.13;;;13.84;100.00
71165;BME280;58859;55.132;-1.586;2023-03-23T03:26:25;98330.72;;;13.19;100.00
71165;BME280;58859;55.132;-1.586;2023-03-23T03:28:54;98320.84;;;13.21;100.00
71165;BME280;58859;55.132;-1.586;2023-03-23T03:31:26;98325.28;;;13.97;100.00
71165;BME280;58859;55.132;-1.586;2023-03-23T03:33:53;98317.31;;;13.69;100.00
71165;BME280;58859;55.132;-1.586;2023-03-23T03:36:26;98324.09;;;12.87;100.00
71165;BME280;58859;55.132;-1.586;2023-03-23T03:38:53;98309.56;;;13.09;100.00
71165;BME280;58859;55.132;-1.586;2023-03-23T03:41:19;98319.41;;;13.37;100.00
71165;BME280;58859;55.132;-1.586;2023-03-23T03:43:45;98318.66;;;13.60;100.00
71165;BME280;58859;55.132;-1.586;2023-03-23T03:46:11;98313.53;;;13.42;100.00
71165;BME280;58859;55.132;-1.586;2023-03-23T03:48:36;98313.13;;;13.27;100.00
71165;BME280;58859;55.132;-1.586;2023-03-23T03:51:02;98320.25;;;12.72;100.00
71165;BME280;58859;55.132;-1.586;2023-03-23T03:53:28;98320.41;;;12.77;100.00
71165;BME280;58859;55.132;-1.586;2023-03-23T03:55:54;98329.16;;;12.46;100.00
71165;BME280;58859;55.132;-1.586;2023-03-23T03:58:22;98339.25;;;13.79;100.00
71165;BME280;58859;55.132;-1.586;2023-03-23T04:00:48;98346.50;;;12.58;100.00
71165;BME280;58859;55.132;-1.586;2023-03-23T04:03:14;98353.13;;;13.09;100.00
71165;BME280;58859;55.132;-1.586;2023-03-23T04:05:40;98362.84;;;13.61;100.00
71165;BME280;58859;55.132;-1.586;2023-03-23T04:08:07;98360.34;;;13.07;100.00
71165;BME280;58859;55.132;-1.586;2023-03-23T04:10:32;98346.09;;;13.39;100.00
71165;BME280;58859;55.132;-1.586;2023-03-23T04:12:59;98368.91;;;13.85;100.00
71165;BME280;58859;55.132;-1.586;2023-03-23T04:15:25;98363.22;;;14.00;100.00
71165;BME280;58859;55.132;-1.586;2023-03-23T04:17:51;98365.75;;;13.12;100.00
71165;BME280;58859;55.132;-1.586;2023-03-23T04:20:16;98369.38;;;13.94;100.00
71165;BME280;58859;55.132;-1.586;2023-03-23T04:22:46;98366.13;;;13.68;100.00
71165;BME280;58859;55.132;-1.586;2023-03-23T04:25:16;98369.91;;;13.72;100.00
71165;BME280;58859;55.132;-1.586;2023-03-23T04:27:43;98380.09;;;12.48;100.00
71165;BME280;58859;55.132;-1.586;2023-03-23T04:30:10;98367.84;;;12.31;100.00
71165;BME280;58859;55.132;-1.586;2023-03-23T04:32:38;98379.56;;;11.34;100.00
71165;BME280;58859;55.132;-1.586;2023-03-23T04:35:08;98386.16;;;11.68;100.00
71165;BME280;58859;55.132;-1.586;2023-03-23T04:37:33;98393.44;;;11.22;100.00
71165;BME280;58859;55.132;-1.586;2023-03-23T04:39:59;98393.66;;;10.69;100.00
71165;BME280;58859;55.132;-1.586;2023-03-23T04:42:30;98391.28;;;10.55;100.00
71165;BME280;58859;55.132;-1.586;2023-03-23T04:44:57;98395.03;;;10.65;100.00
71165;BME280;58859;55.132;-1.586;2023-03-23T04:47:24;98394.31;;;11.03;100.00
71165;BME280;58859;55.132;-1.586;2023-03-23T04:49:51;98392.44;;;10.72;100.00
71165;BME280;58859;55.132;-1.586;2023-03-23T04:52:17;98388.28;;;11.09;100.00
71165;BME280;58859;55.132;-1.586;2023-03-23T04:54:43;98392.03;;;11.19;100.00
71165;BME280;58859;55.132;-1.586;2023-03-23T04:57:08;98387.47;;;11.15;100.00
71165;BME280;58859;55.132;-1.586;2023-03-23T04:59:34;98381.47;;;11.83;100.00
71165;BME280;58859;55.132;-1.586;2023-03-23T05:01:59;98381.56;;;11.64;100.00
71165;BME280;58859;55.132;-1.586;2023-03-23T05:04:25;98382.06;;;12.10;100.00
71165;BME280;58859;55.132;-1.586;2023-03-23T05:06:51;98383.56;;;11.75;100.00
71165;BME280;58859;55.132;-1.586;2023-03-23T05:09:17;98374.78;;;11.69;100.00
71165;BME280;58859;55.132;-1.586;2023-03-23T05:11:42;98365.41;;;12.54;100.00
71165;BME280;58859;55.132;-1.586;2023-03-23T05:14:07;98363.91;;;12.94;100.00
71165;BME280;58859;55.132;-1.586;2023-03-23T05:16:33;98355.75;;;12.54;100.00
71165;BME280;58859;55.132;-1.586;2023-03-23T05:19:01;98350.59;;;13.02;100.00
71165;BME280;58859;55.132;-1.586;2023-03-23T05:21:27;98360.47;;;12.82;100.00
71165;BME280;58859;55.132;-1.586;2023-03-23T05:23:53;98347.56;;;12.87;100.00
71165;BME280;58859;55.132;-1.586;2023-03-23T05:26:23;98348.75;;;12.37;100.00
71165;BME280;58859;55.132;-1.586;2023-03-23T05:28:54;98340.34;;;13.01;100.00
71165;BME280;58859;55.132;-1.586;2023-03-23T05:31:21;98335.94;;;13.31;100.00
71165;BME280;58859;55.132;-1.586;2023-03-23T05:33:47;98331.25;;;13.51;100.00
71165;BME280;58859;55.132;-1.586;2023-03-23T05:36:12;98349.31;;;13.23;100.00
71165;BME280;58859;55.132;-1.586;2023-03-23T05:38:39;98361.53;;;13.41;100.00
71165;BME280;58859;55.132;-1.586;2023-03-23T05:41:09;98360.13;;;13.56;100.00
71165;BME280;58859;55.132;-1.586;2023-03-23T05:43:35;98343.69;;;13.91;100.00
71165;BME280;58859;55.132;-1.586;2023-03-23T05:46:00;98359.88;;;14.34;100.00
71165;BME280;58859;55.132;-1.586;2023-03-23T05:48:26;98369.13;;;13.31;100.00
71165;BME280;58859;55.132;-1.586;2023-03-23T05:50:52;98373.31;;;13.32;100.00
71165;BME280;58859;55.132;-1.586;2023-03-23T05:53:17;98383.16;;;12.82;100.00
71165;BME280;58859;55.132;-1.586;2023-03-23T05:55:43;98381.09;;;14.03;100.00
71165;BME280;58859;55.132;-1.586;2023-03-23T05:58:08;98383.91;;;13.48;100.00
71165;BME280;58859;55.132;-1.586;2023-03-23T06:00:34;98386.50;;;13.37;100.00
71165;BME280;58859;55.132;-1.586;2023-03-23T06:02:59;98375.31;;;13.48;100.00
71165;BME280;58859;55.132;-1.586;2023-03-23T06:05:26;98396.69;;;13.68;100.00
71165;BME280;58859;55.132;-1.586;2023-03-23T06:07:52;98390.09;;;13.65;100.00
71165;BME280;58859;55.132;-1.586;2023-03-23T06:10:18;98389.91;;;13.78;100.00
71165;BME280;58859;55.132;-1.586;2023-03-23T06:12:44;98404.00;;;13.18;100.00
71165;BME280;58859;55.132;-1.586;2023-03-23T06:15:10;98402.94;;;14.31;100.00
71165;BME280;58859;55.132;-1.586;2023-03-23T06:17:36;98400.94;;;13.80;100.00
71165;BME280;58859;55.132;-1.586;2023-03-23T06:20:05;98403.06;;;13.72;100.00
71165;BME280;58859;55.132;-1.586;2023-03-23T06:22:36;98431.41;;;12.91;100.00
71165;BME280;58859;55.132;-1.586;2023-03-23T06:25:02;98418.09;;;13.47;100.00
71165;BME280;58859;55.132;-1.586;2023-03-23T06:27:27;98432.81;;;13.71;100.00
71165;BME280;58859;55.132;-1.586;2023-03-23T06:29:54;98454.41;;;12.57;100.00
71165;BME280;58859;55.132;-1.586;2023-03-23T06:32:22;98462.22;;;12.57;100.00
71165;BME280;58859;55.132;-1.586;2023-03-23T06:34:48;98471.97;;;13.89;100.00
71165;BME280;58859;55.132;-1.586;2023-03-23T06:37:14;98486.72;;;13.17;100.00
71165;BME280;58859;55.132;-1.586;2023-03-23T06:39:41;98494.75;;;12.30;100.00
71165;BME280;58859;55.132;-1.586;2023-03-23T06:42:09;98484.50;;;13.69;100.00
71165;BME280;58859;55.132;-1.586;2023-03-23T06:44:36;98502.84;;;12.22;100.00
71165;BME280;58859;55.132;-1.586;2023-03-23T06:47:01;98499.75;;;11.69;100.00
71165;BME280;58859;55.132;-1.586;2023-03-23T06:49:27;98489.13;;;12.02;100.00
71165;BME280;58859;55.132;-1.586;2023-03-23T06:51:52;98499.09;;;12.12;100.00
71165;BME280;58859;55.132;-1.586;2023-03-23T06:54:18;98511.19;;;12.31;100.00
71165;BME280;58859;55.132;-1.586;2023-03-23T06:56:43;98495.97;;;12.28;100.00
71165;BME280;58859;55.132;-1.586;2023-03-23T06:59:09;98501.69;;;12.43;100.00
71165;BME280;58859;55.132;-1.586;2023-03-23T07:01:35;98501.00;;;12.54;100.00
71165;BME280;58859;55.132;-1.586;2023-03-23T07:04:01;98507.75;;;12.37;100.00
71165;BME280;58859;55.132;-1.586;2023-03-23T07:06:27;98510.69;;;11.84;100.00
71165;BME280;58859;55.132;-1.586;2023-03-23T07:08:53;98495.78;;;12.97;100.00
71165;BME280;58859;55.132;-1.586;2023-03-23T07:11:18;98498.19;;;11.99;100.00
71165;BME280;58859;55.132;-1.586;2023-03-23T07:13:44;98484.22;;;13.11;100.00
71165;BME280;58859;55.132;-1.586;2023-03-23T07:16:10;98486.31;;;14.98;100.00
71165;BME280;58859;55.132;-1.586;2023-03-23T07:18:36;98482.78;;;16.28;100.00
71165;BME280;58859;55.132;-1.586;2023-03-23T07:21:01;98484.91;;;16.48;100.00
71165;BME280;58859;55.132;-1.586;2023-03-23T07:23:28;98476.66;;;15.49;100.00
71165;BME280;58859;55.132;-1.586;2023-03-23T07:25:54;98479.06;;;14.12;100.00
71165;BME280;58859;55.132;-1.586;2023-03-23T07:28:19;98476.22;;;13.24;100.00
71165;BME280;58859;55.132;-1.586;2023-03-23T07:30:45;98470.44;;;13.70;100.00
71165;BME280;58859;55.132;-1.586;2023-03-23T07:33:10;98477.63;;;12.65;100.00
71165;BME280;58859;55.132;-1.586;2023-03-23T07:35:36;98480.63;;;11.88;100.00
71165;BME280;58859;55.132;-1.586;2023-03-23T07:38:03;98473.94;;;11.99;100.00
71165;BME280;58859;55.132;-1.586;2023-03-23T07:40:29;98474.47;;;11.76;100.00
71165;BME280;58859;55.132;-1.586;2023-03-23T07:42:58;98475.34;;;11.95;100.00
71165;BME280;58859;55.132;-1.586;2023-03-23T07:45:24;98476.31;;;11.69;100.00
71165;BME280;58859;55.132;-1.586;2023-03-23T07:47:50;98472.50;;;11.72;100.00
71165;BME280;58859;55.132;-1.586;2023-03-23T07:50:16;98473.97;;;10.97;100.00
71165;BME280;58859;55.132;-1.586;2023-03-23T07:52:43;98482.84;;;11.40;100.00
71165;BME280;58859;55.132;-1.586;2023-03-23T07:55:10;98475.22;;;11.39;100.00
71165;BME280;58859;55.132;-1.586;2023-03-23T07:57:43;98476.84;;;12.09;100.00
71165;BME280;58859;55.132;-1.586;2023-03-23T08:00:09;98472.94;;;12.25;100.00
71165;BME280;58859;55.132;-1.586;2023-03-23T08:02:37;98471.50;;;12.53;100.00
71165;BME280;58859;55.132;-1.586;2023-03-23T08:05:03;98471.84;;;12.82;100.00
71165;BME280;58859;55.132;-1.586;2023-03-23T08:07:28;98474.38;;;12.21;100.00
71165;BME280;58859;55.132;-1.586;2023-03-23T08:09:53;98482.66;;;12.60;100.00
71165;BME280;58859;55.132;-1.586;2023-03-23T08:12:19;98466.78;;;14.12;100.00
71165;BME280;58859;55.132;-1.586;2023-03-23T08:14:44;98463.41;;;15.05;100.00
71165;BME280;58859;55.132;-1.586;2023-03-23T08:17:10;98459.69;;;13.12;100.00
71165;BME280;58859;55.132;-1.586;2023-03-23T08:19:35;98467.22;;;13.20;100.00
71165;BME280;58859;55.132;-1.586;2023-03-23T08:22:03;98459.81;;;14.82;100.00
71165;BME280;58859;55.132;-1.586;2023-03-23T08:24:30;98457.41;;;14.34;100.00
71165;BME280;58859;55.132;-1.586;2023-03-23T08:26:56;98463.69;;;15.71;100.00
71165;BME280;58859;55.132;-1.586;2023-03-23T08:29:21;98465.19;;;15.27;100.00
71165;BME280;58859;55.132;-1.586;2023-03-23T08:31:47;98454.56;;;13.53;100.00
71165;BME280;58859;55.132;-1.586;2023-03-23T08:34:12;98455.94;;;14.62;100.00
71165;BME280;58859;55.132;-1.586;2023-03-23T08:36:38;98466.19;;;14.86;100.00
71165;BME280;58859;55.132;-1.586;2023-03-23T08:39:04;98465.22;;;16.45;100.00
71165;BME280;58859;55.132;-1.586;2023-03-23T08:41:31;98468.28;;;16.76;100.00
71165;BME280;58859;55.132;-1.586;2023-03-23T08:43:57;98480.25;;;15.88;100.00
71165;BME280;58859;55.132;-1.586;2023-03-23T08:46:22;98472.16;;;15.10;100.00
71165;BME280;58859;55.132;-1.586;2023-03-23T08:48:48;98464.69;;;14.67;100.00
71165;BME280;58859;55.132;-1.586;2023-03-23T08:51:13;98484.19;;;13.47;100.00
71165;BME280;58859;55.132;-1.586;2023-03-23T08:53:39;98477.91;;;13.18;100.00
71165;BME280;58859;55.132;-1.586;2023-03-23T08:56:10;98472.22;;;14.64;100.00
71165;BME280;58859;55.132;-1.586;2023-03-23T08:58:37;98480.41;;;15.53;100.00
71165;BME280;58859;55.132;-1.586;2023-03-23T09:01:04;98478.53;;;15.66;100.00
71165;BME280;58859;55.132;-1.586;2023-03-23T09:03:32;98464.41;;;16.28;100.00
71165;BME280;58859;55.132;-1.586;2023-03-23T09:05:59;98469.84;;;15.93;100.00
71165;BME280;58859;55.132;-1.586;2023-03-23T09:08:26;98477.38;;;16.68;100.00
71165;BME280;58859;55.132;-1.586;2023-03-23T09:11:03;98469.88;;;15.14;100.00
71165;BME280;58859;55.132;-1.586;2023-03-23T09:13:29;98479.34;;;13.92;100.00
71165;BME280;58859;55.132;-1.586;2023-03-23T09:15:55;98479.28;;;14.22;100.00
71165;BME280;58859;55.132;-1.586;2023-03-23T09:18:20;98463.56;;;14.52;100.00
71165;BME280;58859;55.132;-1.586;2023-03-23T09:20:49;98476.31;;;14.83;100.00
71165;BME280;58859;55.132;-1.586;2023-03-23T09:23:14;98474.72;;;15.33;100.00
71165;BME280;58859;55.132;-1.586;2023-03-23T09:25:40;98473.47;;;15.36;100.00
71165;BME280;58859;55.132;-1.586;2023-03-23T09:28:06;98461.13;;;17.53;100.00
71165;BME280;58859;55.132;-1.586;2023-03-23T09:30:32;98459.13;;;16.78;100.00
71165;BME280;58859;55.132;-1.586;2023-03-23T09:33:03;98451.59;;;17.47;100.00
71165;BME280;58859;55.132;-1.586;2023-03-23T09:35:30;98456.34;;;15.85;100.00
71165;BME280;58859;55.132;-1.586;2023-03-23T09:37:56;98450.69;;;15.76;100.00
71165;BME280;58859;55.132;-1.586;2023-03-23T09:40:32;98449.50;;;15.84;100.00
71165;BME280;58859;55.132;-1.586;2023-03-23T09:49:02;98441.00;;;19.93;100.00
71165;BME280;58859;55.132;-1.586;2023-03-23T09:51:41;98428.03;;;18.89;100.00
71165;BME280;58859;55.132;-1.586;2023-03-23T09:56:39;98423.34;;;20.14;100.00
71165;BME280;58859;55.132;-1.586;2023-03-23T10:01:47;98415.13;;;20.66;100.00
71165;BME280;58859;55.132;-1.586;2023-03-23T10:04:34;98412.72;;;20.69;100.00
71165;BME280;58859;55.132;-1.586;2023-03-23T10:07:17;98407.34;;;19.13;100.00
71165;BME280;58859;55.132;-1.586;2023-03-23T10:09:48;98423.88;;;18.51;100.00
71165;BME280;58859;55.132;-1.586;2023-03-23T10:12:27;98410.63;;;20.66;100.00
71165;BME280;58859;55.132;-1.586;2023-03-23T10:15:29;98421.28;;;19.13;100.00
71165;BME280;58859;55.132;-1.586;2023-03-23T10:18:36;98414.94;;;22.09;100.00
71165;BME280;58859;55.132;-1.586;2023-03-23T10:20:57;98413.53;;;19.59;100.00
71165;BME280;58859;55.132;-1.586;2023-03-23T10:26:18;98414.03;;;21.41;100.00
71165;BME280;58859;55.132;-1.586;2023-03-23T10:28:51;98403.13;;;21.96;100.00
71165;BME280;58859;55.132;-1.586;2023-03-23T10:31:42;98403.63;;;21.05;100.00
71165;BME280;58859;55.132;-1.586;2023-03-23T10:34:19;98408.97;;;21.93;100.00
71165;BME280;58859;55.132;-1.586;2023-03-23T10:36:57;98405.84;;;21.42;100.00
71165;BME280;58859;55.132;-1.586;2023-03-23T10:39:30;98419.56;;;19.39;100.00
71165;BME280;58859;55.132;-1.586;2023-03-23T10:41:56;98419.13;;;21.76;100.00
71165;BME280;58859;55.132;-1.586;2023-03-23T10:44:28;98418.47;;;22.28;100.00
71165;BME280;58859;55.132;-1.586;2023-03-23T10:47:05;98426.91;;;21.57;100.00
71165;BME280;58859;55.132;-1.586;2023-03-23T10:49:41;98433.50;;;21.65;100.00
71165;BME280;58859;55.132;-1.586;2023-03-23T10:57:28;98437.56;;;22.82;100.00
71165;BME280;58859;55.132;-1.586;2023-03-23T11:02:45;98438.69;;;23.00;100.00
71165;BME280;58859;55.132;-1.586;2023-03-23T11:05:19;98440.75;;;22.51;100.00
71165;BME280;58859;55.132;-1.586;2023-03-23T11:08:03;98451.56;;;22.30;100.00
71165;BME280;58859;55.132;-1.586;2023-03-23T11:13:44;98452.97;;;23.04;100.00
71165;BME280;58859;55.132;-1.586;2023-03-23T11:16:22;98454.88;;;22.12;100.00
71165;BME280;58859;55.132;-1.586;2023-03-23T11:18:48;98438.50;;;22.68;100.00
71165;BME280;58859;55.132;-1.586;2023-03-23T11:21:14;98456.00;;;22.69;100.00
71165;BME280;58859;55.132;-1.586;2023-03-23T11:23:47;98456.03;;;22.01;100.00
71165;BME280;58859;55.132;-1.586;2023-03-23T11:29:04;98459.19;;;21.59;100.00
71165;BME280;58859;55.132;-1.586;2023-03-23T11:31:33;98465.19;;;22.14;100.00
71165;BME280;58859;55.132;-1.586;2023-03-23T11:34:02;98470.38;;;21.95;100.00
71165;BME280;58859;55.132;-1.586;2023-03-23T11:38:56;98476.03;;;21.14;100.00
71165;BME280;58859;55.132;-1.586;2023-03-23T11:41:23;98491.97;;;20.24;100.00
71165;BME280;58859;55.132;-1.586;2023-03-23T11:43:51;98487.94;;;21.12;100.00
71165;BME280;58859;55.132;-1.586;2023-03-23T11:46:37;98494.88;;;20.88;100.00
71165;BME280;58859;55.132;-1.586;2023-03-23T11:49:12;98491.03;;;21.93;100.00
71165;BME280;58859;55.132;-1.586;2023-03-23T11:51:44;98495.16;;;20.36;100.00
71165;BME280;58859;55.132;-1.586;2023-03-23T11:54:19;98492.13;;;21.33;100.00
71165;BME280;58859;55.132;-1.586;2023-03-23T11:56:48;98482.97;;;20.90;100.00
71165;BME280;58859;55.132;-1.586;2023-03-23T11:59:17;98482.72;;;20.82;100.00
71165;BME280;58859;55.132;-1.586;2023-03-23T12:10:08;98504.34;;;19.93;100.00
71165;BME280;58859;55.132;-1.586;2023-03-23T12:15:42;98479.44;;;21.79;100.00
71165;BME280;58859;55.132;-1.586;2023-03-23T12:18:23;98498.84;;;22.13;100.00
71165;BME280;58859;55.132;-1.586;2023-03-23T12:21:23;98502.59;;;22.07;100.00
71165;BME280;58859;55.132;-1.586;2023-03-23T12:30:00;98509.94;;;22.15;100.00
71165;BME280;58859;55.132;-1.586;2023-03-23T12:40:55;98513.88;;;20.75;100.00
71165;BME280;58859;55.132;-1.586;2023-03-23T12:49:05;98512.59;;;20.42;100.00
71165;BME280;58859;55.132;-1.586;2023-03-23T12:54:07;98523.63;;;19.31;100.00
71165;BME280;58859;55.132;-1.586;2023-03-23T12:59:49;98528.84;;;18.79;100.00
71165;BME280;58859;55.132;-1.586;2023-03-23T13:02:22;98521.94;;;18.68;100.00
71165;BME280;58859;55.132;-1.586;2023-03-23T13:07:54;98515.97;;;20.07;100.00
71165;BME280;58859;55.132;-1.586;2023-03-23T13:10:24;98514.66;;;20.95;100.00
71165;BME280;58859;55.132;-1.586;2023-03-23T13:12:53;98515.47;;;20.20;100.00
71165;BME280;58859;55.132;-1.586;2023-03-23T13:18:44;98518.06;;;19.90;100.00
71165;BME280;58859;55.132;-1.586;2023-03-23T13:21:21;98515.25;;;20.42;100.00
71165;BME280;58859;55.132;-1.586;2023-03-23T13:24:08;98511.16;;;19.84;100.00
71165;BME280;58859;55.132;-1.586;2023-03-23T13:26:40;98505.22;;;20.49;100.00
71165;BME280;58859;55.132;-1.586;2023-03-23T13:29:19;98511.53;;;20.68;100.00
71165;BME280;58859;55.132;-1.586;2023-03-23T13:31:46;98514.38;;;20.01;100.00
71165;BME280;58859;55.132;-1.586;2023-03-23T13:44:25;98513.97;;;19.00;100.00
71165;BME280;58859;55.132;-1.586;2023-03-23T13:47:07;98516.81;;;20.73;100.00
71165;BME280;58859;55.132;-1.586;2023-03-23T13:49:45;98511.38;;;19.57;100.00
71165;BME280;58859;55.132;-1.586;2023-03-23T13:54:45;98509.25;;;19.07;100.00
71165;BME280;58859;55.132;-1.586;2023-03-23T13:57:25;98508.38;;;20.36;100.00
71165;BME280;58859;55.132;-1.586;2023-03-23T13:59:57;98504.94;;;20.66;100.00
71165;BME280;58859;55.132;-1.586;2023-03-23T14:02:39;98501.59;;;19.01;100.00
71165;BME280;58859;55.132;-1.586;2023-03-23T14:07:56;98513.22;;;17.56;100.00
71165;BME280;58859;55.132;-1.586;2023-03-23T14:10:30;98504.31;;;19.78;100.00
71165;BME280;58859;55.132;-1.586;2023-03-23T14:12:58;98506.94;;;19.73;100.00
71165;BME280;58859;55.132;-1.586;2023-03-23T14:15:29;98511.84;;;17.75;100.00
71165;BME280;58859;55.132;-1.586;2023-03-23T14:17:55;98516.69;;;18.10;100.00
71165;BME280;58859;55.132;-1.586;2023-03-23T14:20:32;98518.59;;;18.78;100.00
71165;BME280;58859;55.132;-1.586;2023-03-23T14:22:59;98510.06;;;18.66;100.00
71165;BME280;58859;55.132;-1.586;2023-03-23T14:25:29;98508.06;;;18.83;100.00
71165;BME280;58859;55.132;-1.586;2023-03-23T14:27:56;98513.81;;;17.63;100.00
71165;BME280;58859;55.132;-1.586;2023-03-23T14:30:24;98514.09;;;18.15;100.00
71165;BME280;58859;55.132;-1.586;2023-03-23T14:32:54;98519.63;;;18.77;100.00
71165;BME280;58859;55.132;-1.586;2023-03-23T14:35:31;98519.59;;;19.19;100.00
71165;BME280;58859;55.132;-1.586;2023-03-23T14:37:57;98518.75;;;19.08;100.00
71165;BME280;58859;55.132;-1.586;2023-03-23T14:40:26;98510.78;;;19.40;100.00